Portada
METAR-TAF:

METAR-TAF

Aeroports :

Obihiro, Japó

latitud: 42-44N, longitud: 143-13E, altitud: 149 m

Observació

L'informe es va fer fa 1 hora i 15 minuts, a les 11:00 UTC
Vent calma
Temperatura 0°C
Humitat 100%
Pressió 1002 hPa
Visibilitat: 5000 m
Escasses núvols a una alçada de 400 ft
Cel ennuvolat a una alçada de 600 ft
Cel ennuvolat a una alçada de 1000 ft
boirina

METAR: RJCB 181100Z 00000KT 5000 BR FEW004 BKN006 BKN010 00/M00 Q1002

Hora: 21:15 (12:15 UTC)

Pronòstic

L'informe es va fer fa 1 hora i 7 minuts, a les 11:08 UTC
Pronòstic vàlid del 18 a les 12 UTC al 19 a les 18 UTC
Vent 5 kt del Oest
Visibilitat 10 km o més
Escasses núvols a una alçada de 400 ft
Cel ennuvolat a una alçada de 1500 ft
Temporalment
l' 18 a les 12 UTC al 18 a les 18 UTC
Visibilitat: 1500 m
Escasses núvols a una alçada de 200 ft
Cel ennuvolat a una alçada de 400 ft
boirina

TAF: RJCB 181108Z 1812/1918 28005KT 9999 FEW004 BKN015 TEMPO 1812/1818 1500 BR FEW002 BKN004

Observacions i pronòstics meteorològics de més de 4000 aeroports (METAR i TAF).

Les estacions disponibles són els punts grocs i vermells al mapa.

Posi el ratolí al punt desitjat per veure el nom de l'estació.

Feu clic per veure les observacions i els pronòstics meteorològics.

Per canviar el mapa: feu clic els botons verds amb una creu de color negre per apropar; al botó verd amb un guió per allunyar la imatge; o en les fletxes verdes per a mapes adjacents.


METAR-TAF: